createdAt,value
2022-12-17T00:00:14.545Z,93672.06
2022-12-17T00:02:59.879Z,93666.06
2022-12-17T00:05:45.265Z,93674.88
2022-12-17T00:08:30.635Z,93665.41
2022-12-17T00:11:17.243Z,93676.41
2022-12-17T00:14:02.922Z,93689.13
2022-12-17T00:16:47.962Z,93687.53
2022-12-17T00:19:33.407Z,93699.34
2022-12-17T00:22:18.551Z,93695.81
2022-12-17T00:25:04.041Z,93694.78
2022-12-17T00:27:49.318Z,93701.78
2022-12-17T00:30:34.527Z,93695.56
2022-12-17T00:33:19.491Z,93697.22
2022-12-17T00:36:12.511Z,93713.44
2022-12-17T00:38:58.131Z,93719.84
2022-12-17T00:41:43.599Z,93724.97
2022-12-17T00:44:28.937Z,93724.69
2022-12-17T00:47:14.510Z,93734.63
2022-12-17T00:49:59.808Z,93735.25
2022-12-17T00:52:44.833Z,93745.31
2022-12-17T00:55:30.055Z,93741.66
2022-12-17T00:58:16.349Z,93752.13
2022-12-17T01:01:01.700Z,93750.84
2022-12-17T01:03:47.198Z,93753.47
2022-12-17T01:06:32.544Z,93770.72
2022-12-17T01:09:17.871Z,93771.84
2022-12-17T01:12:03.053Z,93778.53
2022-12-17T01:14:48.434Z,93781.75
2022-12-17T01:17:33.925Z,93776.50
2022-12-17T01:20:19.124Z,93782.69
2022-12-17T01:23:04.806Z,93779.06
2022-12-17T01:25:50.195Z,93787.38
2022-12-17T01:28:41.128Z,93784.66
2022-12-17T01:31:31.470Z,93789.94
2022-12-17T01:34:20.000Z,93798.88
2022-12-17T01:37:05.184Z,93798.19
2022-12-17T01:39:50.039Z,93794.41
2022-12-17T01:42:35.568Z,93800.63
2022-12-17T01:45:22.421Z,93807.31
2022-12-17T01:48:23.657Z,93820.25
2022-12-17T01:51:13.556Z,93815.78
2022-12-17T01:54:16.422Z,93820.88
2022-12-17T01:57:02.468Z,93827.59
2022-12-17T01:59:59.784Z,93830.31
2022-12-17T02:02:45.228Z,93838.75
2022-12-17T02:05:30.471Z,93833.66
2022-12-17T02:08:42.600Z,93846.56
2022-12-17T02:11:45.035Z,93845.78
2022-12-17T02:15:00.552Z,93846.56
2022-12-17T02:17:52.868Z,93843.88
2022-12-17T02:20:43.974Z,93851.41
2022-12-17T02:23:42.275Z,93845.94
2022-12-17T02:26:32.058Z,93846.25
2022-12-17T02:29:18.979Z,93856.78
2022-12-17T02:32:04.882Z,93856.31
2022-12-17T02:34:50.083Z,93863.00
2022-12-17T02:37:35.721Z,93865.56
2022-12-17T02:40:20.844Z,93855.03
2022-12-17T02:43:07.603Z,93869.59
2022-12-17T02:45:53.245Z,93876.75
2022-12-17T02:48:38.922Z,93873.06
2022-12-17T02:51:24.678Z,93870.84
2022-12-17T02:54:12.275Z,93887.28
2022-12-17T02:56:57.446Z,93884.41
2022-12-17T02:59:42.633Z,93891.13
2022-12-17T03:02:28.179Z,93897.97
2022-12-17T03:05:42.916Z,93900.06
2022-12-17T03:08:18.916Z,93907.09
2022-12-17T03:11:04.301Z,93905.16
2022-12-17T03:13:49.474Z,93909.63
2022-12-17T03:16:37.897Z,93915.38
2022-12-17T03:19:23.322Z,93920.47
2022-12-17T03:22:08.835Z,93924.94
2022-12-17T03:24:53.987Z,93920.13
2022-12-17T03:27:39.443Z,93935.13
2022-12-17T03:30:25.071Z,93929.72
2022-12-17T03:33:10.334Z,93938.03
2022-12-17T03:35:55.939Z,93946.31
2022-12-17T03:38:41.294Z,93944.72
2022-12-17T03:41:26.229Z,93948.56
2022-12-17T03:44:11.628Z,93935.31
2022-12-17T03:46:56.595Z,93958.75
2022-12-17T03:49:41.516Z,93963.84
2022-12-17T03:52:26.947Z,93963.53
2022-12-17T03:55:12.141Z,93971.66
2022-12-17T03:57:57.266Z,93968.97
2022-12-17T04:00:42.111Z,93969.72
2022-12-17T04:03:27.671Z,93976.94
2022-12-17T04:06:12.986Z,93973.41
2022-12-17T04:08:58.027Z,93979.13
2022-12-17T04:11:43.472Z,93985.69
2022-12-17T04:14:28.540Z,93993.00
2022-12-17T04:17:13.809Z,94004.19
2022-12-17T04:19:59.232Z,94009.44
2022-12-17T04:22:44.815Z,94014.56
2022-12-17T04:25:30.074Z,94018.44
2022-12-17T04:28:15.685Z,94025.44
2022-12-17T04:31:01.073Z,94016.63
2022-12-17T04:33:46.461Z,94020.59
2022-12-17T04:36:31.815Z,94027.78
2022-12-17T04:39:16.653Z,94031.91
2022-12-17T04:42:01.898Z,94035.91
2022-12-17T04:44:47.264Z,94039.81
2022-12-17T04:47:32.483Z,94035.63
2022-12-17T04:50:17.861Z,94042.63
2022-12-17T04:53:03.365Z,94052.22
2022-12-17T04:55:49.014Z,94057.63
2022-12-17T04:58:34.327Z,94058.72
2022-12-17T05:01:19.940Z,94059.69
2022-12-17T05:04:04.894Z,94065.91
2022-12-17T05:06:50.414Z,94062.53
2022-12-17T05:09:35.874Z,94079.94
2022-12-17T05:12:21.332Z,94083.16
2022-12-17T05:15:06.653Z,94090.16
2022-12-17T05:17:51.881Z,94088.38
2022-12-17T05:20:37.249Z,94094.69
2022-12-17T05:23:23.972Z,94106.94
2022-12-17T05:26:14.423Z,94111.91
2022-12-17T05:28:59.266Z,94117.50
2022-12-17T05:31:44.276Z,94114.00
2022-12-17T05:34:29.404Z,94112.09
2022-12-17T05:37:14.573Z,94116.84
2022-12-17T05:39:59.536Z,94109.72
2022-12-17T05:42:44.271Z,94121.59
2022-12-17T05:45:29.421Z,94121.59
2022-12-17T05:48:17.500Z,94116.84
2022-12-17T05:51:07.421Z,94134.34
2022-12-17T05:53:52.814Z,94121.72
2022-12-17T05:56:38.096Z,94130.25
2022-12-17T05:59:23.392Z,94138.50
2022-12-17T06:02:08.616Z,94139.00
2022-12-17T06:04:57.455Z,94146.03
2022-12-17T06:07:45.525Z,94158.13
2022-12-17T06:10:30.427Z,94150.06
2022-12-17T06:13:16.391Z,94156.94
2022-12-17T06:16:01.832Z,94170.13
2022-12-17T06:18:46.847Z,94171.72
2022-12-17T06:21:31.765Z,94161.53
2022-12-17T06:24:21.117Z,94175.69
2022-12-17T06:27:05.957Z,94187.25
2022-12-17T06:29:51.228Z,94192.03
2022-12-17T06:32:36.438Z,94195.94
2022-12-17T06:35:21.983Z,94204.09
2022-12-17T06:38:06.814Z,94212.09
2022-12-17T06:40:51.817Z,94218.97
2022-12-17T06:43:37.970Z,94218.97
2022-12-17T06:46:23.611Z,94227.56
2022-12-17T06:49:08.823Z,94237.41
2022-12-17T06:51:54.197Z,94233.41
2022-12-17T06:54:39.345Z,94252.69
2022-12-17T06:57:24.940Z,94265.50
2022-12-17T07:00:10.862Z,94262.81
2022-12-17T07:03:00.300Z,94267.75
2022-12-17T07:05:46.244Z,94270.25
2022-12-17T07:08:31.815Z,94274.97
2022-12-17T07:11:20.987Z,94272.28
2022-12-17T07:14:06.265Z,94274.22
2022-12-17T07:16:51.254Z,94280.19
2022-12-17T07:19:36.102Z,94279.91
2022-12-17T07:22:21.085Z,94279.25
2022-12-17T07:25:06.087Z,94286.53
2022-12-17T07:27:50.908Z,94300.09
2022-12-17T07:30:40.894Z,94291.94
2022-12-17T07:33:28.610Z,94295.72
2022-12-17T07:36:15.085Z,94295.00
2022-12-17T07:39:00.169Z,94296.63
2022-12-17T07:41:45.087Z,94294.44
2022-12-17T07:44:29.892Z,94300.06
2022-12-17T07:47:15.347Z,94291.75
2022-12-17T07:50:00.991Z,94301.22
2022-12-17T07:52:46.421Z,94294.31
2022-12-17T07:55:31.809Z,94316.09
2022-12-17T07:58:18.918Z,94311.09
2022-12-17T08:01:04.441Z,94316.31
2022-12-17T08:03:50.155Z,94319.91
2022-12-17T08:06:35.855Z,94316.44
2022-12-17T08:09:21.068Z,94323.16
2022-12-17T08:12:06.258Z,94328.53
2022-12-17T08:14:51.759Z,94337.50
2022-12-17T08:17:37.329Z,94337.22
2022-12-17T08:20:23.246Z,94344.88
2022-12-17T08:23:08.855Z,94349.88
2022-12-17T08:25:54.061Z,94348.69
2022-12-17T08:28:50.447Z,94345.44
2022-12-17T08:31:36.453Z,94354.34
2022-12-17T08:34:22.195Z,94359.50
2022-12-17T08:37:07.357Z,94351.56
2022-12-17T08:39:52.617Z,94356.94
2022-12-17T08:42:38.240Z,94364.06
2022-12-17T08:45:24.248Z,94381.56
2022-12-17T08:48:09.712Z,94385.94
2022-12-17T08:50:54.887Z,94394.13
2022-12-17T08:53:40.793Z,94397.97
2022-12-17T08:56:26.517Z,94401.38
2022-12-17T08:59:11.900Z,94417.41
2022-12-17T09:01:57.414Z,94416.66
2022-12-17T09:04:42.897Z,94421.63
2022-12-17T09:07:28.287Z,94416.91
2022-12-17T09:10:13.987Z,94424.16
2022-12-17T09:13:04.358Z,94433.34
2022-12-17T09:15:50.267Z,94434.84
2022-12-17T09:18:39.706Z,94439.53
2022-12-17T09:21:26.240Z,94445.53
2022-12-17T09:24:11.396Z,94431.22
2022-12-17T09:26:56.491Z,94431.72
2022-12-17T09:29:41.887Z,94436.44
2022-12-17T09:32:27.168Z,94434.88
2022-12-17T09:35:12.398Z,94436.84
2022-12-17T09:37:57.607Z,94437.13
2022-12-17T09:40:43.586Z,94449.06
2022-12-17T09:44:10.086Z,94446.78
2022-12-17T09:47:03.446Z,94455.09
2022-12-17T09:49:48.915Z,94460.19
2022-12-17T09:52:45.198Z,94450.56
2022-12-17T09:55:39.138Z,94455.81
2022-12-17T09:58:25.431Z,94452.28
2022-12-17T10:01:11.603Z,94448.84
2022-12-17T10:04:04.820Z,94458.34
2022-12-17T10:06:50.587Z,94460.16
2022-12-17T10:09:37.455Z,94467.81
2022-12-17T10:12:35.875Z,94467.91
2022-12-17T10:15:21.171Z,94470.47
2022-12-17T10:18:06.345Z,94472.69
2022-12-17T10:20:58.807Z,94480.25
2022-12-17T10:23:49.041Z,94485.72
2022-12-17T10:26:43.129Z,94485.00
2022-12-17T10:29:45.541Z,94481.06
2022-12-17T10:32:35.892Z,94487.28
2022-12-17T10:35:36.177Z,94495.59
2022-12-17T10:38:32.546Z,94493.38
2022-12-17T10:41:17.640Z,94496.25
2022-12-17T10:44:03.329Z,94497.00
2022-12-17T10:46:50.385Z,94497.06
2022-12-17T10:49:37.847Z,94499.19
2022-12-17T10:52:37.969Z,94496.66
2022-12-17T10:55:24.511Z,94505.25
2022-12-17T10:58:11.242Z,94498.16
2022-12-17T11:00:58.298Z,94499.78
2022-12-17T11:03:47.537Z,94507.44
2022-12-17T11:06:42.219Z,94512.66
2022-12-17T11:09:51.477Z,94503.84
2022-12-17T11:12:38.824Z,94511.69
2022-12-17T11:16:05.049Z,94514.84
2022-12-17T11:19:13.914Z,94519.28
2022-12-17T11:22:02.893Z,94531.75
2022-12-17T11:24:53.725Z,94547.72
2022-12-17T11:27:42.338Z,94543.69
2022-12-17T11:30:34.556Z,94549.84
2022-12-17T11:33:28.611Z,94556.19
2022-12-17T11:36:35.177Z,94564.59
2022-12-17T11:39:45.771Z,94555.91
2022-12-17T11:42:37.694Z,94555.28
2022-12-17T11:45:49.193Z,94550.59
2022-12-17T11:48:49.411Z,94555.75
2022-12-17T11:51:47.647Z,94558.25
2022-12-17T11:54:44.526Z,94554.38
2022-12-17T11:57:41.167Z,94567.88
2022-12-17T12:00:35.990Z,94566.06
2022-12-17T12:03:27.431Z,94573.72
2022-12-17T12:06:15.150Z,94571.78
2022-12-17T12:09:27.291Z,94574.44
2022-12-17T12:12:32.198Z,94578.69
2022-12-17T12:15:40.394Z,94579.03
2022-12-17T12:18:43.712Z,94568.97
2022-12-17T12:21:54.672Z,94566.94
2022-12-17T12:25:16.920Z,94577.38
2022-12-17T12:28:29.968Z,94575.91
2022-12-17T12:31:34.256Z,94585.84
2022-12-17T12:34:21.876Z,94584.38
2022-12-17T12:37:08.043Z,94587.41
2022-12-17T12:39:59.240Z,94580.31
2022-12-17T12:43:07.352Z,94584.03
2022-12-17T12:46:19.015Z,94591.53
2022-12-17T12:49:15.967Z,94589.50
2022-12-17T12:52:01.646Z,94591.59
2022-12-17T12:55:05.382Z,94598.41
2022-12-17T12:57:58.227Z,94591.59
2022-12-17T13:00:49.580Z,94592.00
2022-12-17T13:03:41.783Z,94610.06
2022-12-17T13:06:08.806Z,94598.56
2022-12-17T13:08:36.197Z,94608.19
2022-12-17T13:11:38.928Z,94614.34
2022-12-17T13:14:19.847Z,94614.84
2022-12-17T13:16:53.840Z,94619.59
2022-12-17T13:19:31.977Z,94611.25
2022-12-17T13:22:17.771Z,94608.03
2022-12-17T13:24:52.784Z,94611.16
2022-12-17T13:27:34.928Z,94615.31
2022-12-17T13:30:29.436Z,94606.09
2022-12-17T13:33:02.286Z,94609.16
2022-12-17T13:35:41.308Z,94614.94
2022-12-17T13:38:43.677Z,94624.66
2022-12-17T13:41:13.152Z,94627.22
2022-12-17T13:43:49.017Z,94640.69
2022-12-17T13:46:26.059Z,94640.16
2022-12-17T13:48:54.703Z,94646.69
2022-12-17T13:51:22.435Z,94628.81
2022-12-17T13:54:00.687Z,94655.38
2022-12-17T13:56:36.169Z,94656.75
2022-12-17T13:59:09.089Z,94660.59
2022-12-17T14:01:49.228Z,94655.69
2022-12-17T14:04:27.433Z,94669.97
2022-12-17T14:06:59.397Z,94665.34
2022-12-17T14:09:39.489Z,94674.06
2022-12-17T14:12:22.346Z,94676.31
2022-12-17T14:14:56.020Z,94679.72
2022-12-17T14:17:35.479Z,94678.53
2022-12-17T14:20:08.407Z,94681.50
2022-12-17T14:22:50.786Z,94689.28
2022-12-17T14:25:20.560Z,94693.72
2022-12-17T14:27:57.431Z,94699.81
2022-12-17T14:30:25.804Z,94691.09
2022-12-17T14:32:52.563Z,94697.53
2022-12-17T14:35:31.159Z,94705.16
2022-12-17T14:37:58.000Z,94707.13
2022-12-17T14:40:25.761Z,94705.41
2022-12-17T14:42:57.797Z,94694.41
2022-12-17T14:45:26.108Z,94704.94
2022-12-17T14:48:00.956Z,94710.28
2022-12-17T14:50:33.421Z,94703.03
2022-12-17T14:53:05.416Z,94704.88
2022-12-17T14:55:39.183Z,94720.88
2022-12-17T14:58:11.966Z,94718.19
2022-12-17T15:00:41.067Z,94723.72
2022-12-17T15:03:19.125Z,94723.53
2022-12-17T15:05:51.436Z,94730.81
2022-12-17T15:08:18.488Z,94731.03
2022-12-17T15:10:45.194Z,94748.50
2022-12-17T15:13:12.162Z,94743.41
2022-12-17T15:15:38.797Z,94741.34
2022-12-17T15:18:05.557Z,94758.75
2022-12-17T15:20:32.249Z,94764.88
2022-12-17T15:22:58.995Z,94764.28
2022-12-17T15:25:25.689Z,94767.19
2022-12-17T15:27:52.543Z,94762.41
2022-12-17T15:30:19.839Z,94771.78
2022-12-17T15:32:47.529Z,94780.56
2022-12-17T15:35:14.668Z,94779.59
2022-12-17T15:37:41.330Z,94788.72
2022-12-17T15:40:10.868Z,94792.00
2022-12-17T15:42:57.443Z,94788.09
2022-12-17T15:45:25.928Z,94800.25
2022-12-17T15:47:52.678Z,94809.69
2022-12-17T15:50:19.609Z,94802.28
2022-12-17T15:52:46.368Z,94811.34
2022-12-17T15:55:13.310Z,94803.72
2022-12-17T15:57:40.026Z,94810.88
2022-12-17T16:00:07.441Z,94806.97
2022-12-17T16:02:34.376Z,94806.25
2022-12-17T16:05:01.298Z,94811.28
2022-12-17T16:07:28.099Z,94812.56
2022-12-17T16:09:55.262Z,94813.94
2022-12-17T16:12:23.848Z,94812.03
2022-12-17T16:14:50.638Z,94815.16
2022-12-17T16:17:17.357Z,94820.50
2022-12-17T16:19:44.067Z,94821.50
2022-12-17T16:22:10.712Z,94823.63
2022-12-17T16:24:37.438Z,94834.50
2022-12-17T16:27:04.960Z,94837.50
2022-12-17T16:29:31.766Z,94837.75
2022-12-17T16:31:59.917Z,94837.53
2022-12-17T16:34:26.698Z,94845.50
2022-12-17T16:36:53.408Z,94845.38
2022-12-17T16:39:20.308Z,94856.91
2022-12-17T16:41:47.139Z,94856.66
2022-12-17T16:44:13.806Z,94851.47
2022-12-17T16:46:42.452Z,94855.53
2022-12-17T16:49:12.737Z,94861.41
2022-12-17T16:51:39.927Z,94856.56
2022-12-17T16:54:09.240Z,94858.88
2022-12-17T16:56:40.124Z,94868.19
2022-12-17T16:59:08.548Z,94867.88
2022-12-17T17:01:36.865Z,94870.06
2022-12-17T17:04:05.615Z,94869.34
2022-12-17T17:06:34.010Z,94870.75
2022-12-17T17:09:06.335Z,94876.63
2022-12-17T17:11:33.058Z,94873.06
2022-12-17T17:14:00.008Z,94889.22
2022-12-17T17:16:27.227Z,94884.47
2022-12-17T17:18:54.257Z,94884.09
2022-12-17T17:21:21.718Z,94880.63
2022-12-17T17:23:50.399Z,94875.44
2022-12-17T17:26:17.587Z,94885.94
2022-12-17T17:28:45.696Z,94893.81
2022-12-17T17:31:13.816Z,94893.56
2022-12-17T17:33:46.751Z,94893.81
2022-12-17T17:36:25.539Z,94901.19
2022-12-17T17:38:56.207Z,94917.56
2022-12-17T17:41:25.490Z,94917.41
2022-12-17T17:44:04.209Z,94921.44
2022-12-17T17:46:31.773Z,94922.44
2022-12-17T17:49:00.086Z,94928.66
2022-12-17T17:52:07.229Z,94934.22
2022-12-17T17:54:16.595Z,94942.94
2022-12-17T17:56:43.737Z,94947.50
2022-12-17T17:59:16.046Z,94959.09
2022-12-17T18:01:45.255Z,94961.25
2022-12-17T18:04:13.906Z,94958.75
2022-12-17T18:06:57.441Z,94962.38
2022-12-17T18:09:29.069Z,94960.84
2022-12-17T18:11:55.729Z,94951.56
2022-12-17T18:14:22.568Z,94958.13
2022-12-17T18:16:49.251Z,94953.97
2022-12-17T18:19:20.596Z,94958.75
2022-12-17T18:21:48.008Z,94959.38
2022-12-17T18:24:22.867Z,94959.41
2022-12-17T18:26:51.015Z,94966.16
2022-12-17T18:29:23.328Z,94970.97
2022-12-17T18:31:52.118Z,94977.25
2022-12-17T18:34:21.270Z,94973.69
2022-12-17T18:36:48.814Z,94973.66
2022-12-17T18:39:19.008Z,94970.97
2022-12-17T18:42:05.414Z,94986.22
2022-12-17T18:44:34.160Z,94991.41
2022-12-17T18:47:00.979Z,94984.94
2022-12-17T18:49:27.977Z,94989.03
2022-12-17T19:00:32.144Z,94998.72
2022-12-17T19:02:58.917Z,95006.84
2022-12-17T19:05:25.699Z,95004.91
2022-12-17T19:07:52.367Z,95008.22
2022-12-17T19:10:19.058Z,95016.03
2022-12-17T19:12:45.767Z,95017.75
2022-12-17T19:15:12.507Z,95034.25
2022-12-17T19:17:39.325Z,95025.66
2022-12-17T19:20:06.538Z,95021.41
2022-12-17T19:22:33.198Z,95030.50
2022-12-17T19:24:59.918Z,95029.41
2022-12-17T19:27:26.606Z,95029.81
2022-12-17T19:29:55.082Z,95034.16
2022-12-17T19:32:22.137Z,95026.75
2022-12-17T19:34:48.931Z,95036.28
2022-12-17T19:37:16.105Z,95040.63
2022-12-17T19:39:42.849Z,95037.00
2022-12-17T19:42:24.974Z,95044.44
2022-12-17T19:44:53.198Z,95046.06
2022-12-17T19:47:19.988Z,95053.16
2022-12-17T19:49:46.659Z,95055.97
2022-12-17T19:52:13.389Z,95054.78
2022-12-17T19:54:40.088Z,95059.03
2022-12-17T19:57:07.085Z,95068.03
2022-12-17T19:59:34.200Z,95066.00
2022-12-17T20:02:03.820Z,95063.09
2022-12-17T20:04:31.078Z,95049.06
2022-12-17T20:06:58.901Z,95075.44
2022-12-17T20:09:25.568Z,95070.06
2022-12-17T20:11:52.527Z,95075.63
2022-12-17T20:14:26.628Z,95071.09
2022-12-17T20:16:56.785Z,95083.34
2022-12-17T20:19:25.348Z,95082.38
2022-12-17T20:21:52.897Z,95081.03
2022-12-17T20:24:20.241Z,95087.34
2022-12-17T20:26:49.944Z,95089.88
2022-12-17T20:29:17.233Z,95083.56
2022-12-17T20:31:49.396Z,95092.88
2022-12-17T20:34:18.218Z,95091.06
2022-12-17T20:36:44.925Z,95086.09
2022-12-17T20:39:12.219Z,95082.28
2022-12-17T20:41:40.270Z,95086.94
2022-12-17T20:44:11.395Z,95091.78
2022-12-17T20:46:38.217Z,95089.38
2022-12-17T20:49:05.707Z,95090.69
2022-12-17T20:51:32.866Z,95089.88
2022-12-17T20:54:00.740Z,95089.25
2022-12-17T20:56:30.220Z,95091.06
2022-12-17T20:59:02.972Z,95090.88
2022-12-17T21:01:31.323Z,95094.94
2022-12-17T21:03:58.648Z,95084.00
2022-12-17T21:06:28.021Z,95104.91
2022-12-17T21:08:55.928Z,95101.34
2022-12-17T21:11:27.795Z,95097.91
2022-12-17T21:13:55.200Z,95107.59
2022-12-17T21:16:30.156Z,95116.50
2022-12-17T21:18:58.157Z,95127.41
2022-12-17T21:21:27.926Z,95119.69
2022-12-17T21:23:56.360Z,95124.16
2022-12-17T21:26:31.766Z,95129.41
2022-12-17T21:28:58.919Z,95129.56
2022-12-17T21:31:31.179Z,95141.19
2022-12-17T21:34:00.304Z,95131.78
2022-12-17T21:36:28.786Z,95154.97
2022-12-17T21:38:55.432Z,95143.78
2022-12-17T21:41:26.302Z,95148.19
2022-12-17T21:43:57.645Z,95167.59
2022-12-17T21:46:27.135Z,95178.00
2022-12-17T21:48:54.458Z,95169.06
2022-12-17T21:51:21.697Z,95183.94
2022-12-17T21:53:53.180Z,95170.94
2022-12-17T21:56:19.983Z,95182.31
2022-12-17T21:58:47.444Z,95186.00
2022-12-17T22:01:18.487Z,95178.88
2022-12-17T22:03:53.033Z,95172.31
2022-12-17T22:06:24.009Z,95181.69
2022-12-17T22:08:54.108Z,95183.31
2022-12-17T22:11:27.104Z,95187.72
2022-12-17T22:14:07.375Z,95189.06
2022-12-17T22:16:42.541Z,95187.69
2022-12-17T22:19:25.416Z,95199.50
2022-12-17T22:21:54.330Z,95200.44
2022-12-17T22:24:25.009Z,95201.25
2022-12-17T22:26:51.679Z,95197.81
2022-12-17T22:29:41.320Z,95204.06
2022-12-17T22:32:27.899Z,95201.88
2022-12-17T22:35:23.848Z,95199.56
2022-12-17T22:40:44.677Z,95196.88
2022-12-17T22:44:32.241Z,95202.41
2022-12-17T22:44:45.404Z,95213.19
2022-12-17T22:46:19.867Z,95206.03
2022-12-17T22:48:46.898Z,95200.38
2022-12-17T22:51:16.678Z,95202.94
2022-12-17T22:53:50.940Z,95208.66
2022-12-17T22:56:34.782Z,95212.03
2022-12-17T22:59:05.917Z,95213.50
2022-12-17T23:01:33.103Z,95216.66
2022-12-17T23:04:01.444Z,95223.59
2022-12-17T23:06:28.327Z,95212.63
2022-12-17T23:08:55.013Z,95221.19
2022-12-17T23:11:23.392Z,95218.97
2022-12-17T23:13:50.637Z,95203.78
2022-12-17T23:16:17.882Z,95211.09
2022-12-17T23:18:45.666Z,95212.97
2022-12-17T23:21:24.127Z,95207.19
2022-12-17T23:23:53.172Z,95214.41
2022-12-17T23:26:27.465Z,95215.50
2022-12-17T23:28:58.616Z,95206.06
2022-12-17T23:31:27.122Z,95221.75
2022-12-17T23:33:53.786Z,95227.84
2022-12-17T23:36:23.289Z,95219.72
2022-12-17T23:38:50.397Z,95229.44
2022-12-17T23:41:20.120Z,95230.78
2022-12-17T23:43:47.828Z,95232.31
2022-12-17T23:46:15.036Z,95227.84
2022-12-17T23:48:45.566Z,95229.38
2022-12-17T23:51:14.342Z,95234.19
2022-12-17T23:53:42.245Z,95239.88
2022-12-17T23:56:23.582Z,95242.78
2022-12-17T23:58:53.533Z,95235.56
